Time;durP1;ratioP1;P1;durP2;ratioP2;P2;SDS_P1;SDS_P2;PMS_P1;PMS_P2;Temp;Humidity;BMP_temperature;BMP_pressure;BME280_temperature;BME280_humidity;BME280_pressure;Samples;Min_cycle;Max_cycle;Signal;HPM_P1;HPM_P2
2022/11/21 00:01:38;;;;;;;;;;;;;;;23.43;48.84;93838.41;6118993;19;2080;-65
2022/11/21 00:03:42;;;;;;;;;;;;;;;23.43;48.76;93840.28;6118773;19;1642;-65
2022/11/21 00:05:46;;;;;;;;;;;;;;;23.41;48.97;93848.53;6093879;19;2574;-64
2022/11/21 00:07:52;;;;;;;;;;;;;;;23.40;48.65;93836.22;6119551;19;2118;-64
2022/11/21 00:09:55;;;;;;;;;;;;;;;23.36;48.69;93829.75;6118608;19;1688;-64
2022/11/21 00:11:58;;;;;;;;;;;;;;;23.35;49.01;93830.00;6118649;19;1961;-65
2022/11/21 00:14:02;;;;;;;;;;;;;;;23.38;48.53;93827.63;6119342;19;2013;-64
2022/11/21 00:16:06;;;;;;;;;;;;;;;23.39;49.00;93829.25;6117698;19;2044;-65
2022/11/21 00:18:10;;;;;;;;;;;;;;;23.40;49.35;93824.69;6092334;19;2182;-64
2022/11/21 00:20:13;;;;;;;;;;;;;;;23.42;48.89;93803.81;6117274;19;2096;-63
2022/11/21 00:22:17;;;;;;;;;;;;;;;23.43;48.79;93800.06;6118133;19;1786;-65
2022/11/21 00:24:22;;;;;;;;;;;;;;;23.39;49.05;93804.28;6118274;19;1915;-65
2022/11/21 00:26:26;;;;;;;;;;;;;;;23.41;48.73;93810.22;6118019;19;1945;-64
2022/11/21 00:28:29;;;;;;;;;;;;;;;23.42;48.65;93787.72;6100313;19;2120;-64
2022/11/21 00:30:32;;;;;;;;;;;;;;;23.41;48.89;93783.41;6112422;19;1748;-65
2022/11/21 00:32:36;;;;;;;;;;;;;;;23.41;48.62;93759.28;6118336;19;1933;-65
2022/11/21 00:34:39;;;;;;;;;;;;;;;23.41;48.98;93754.72;6117616;19;2092;-64
2022/11/21 00:36:43;;;;;;;;;;;;;;;23.36;49.14;93749.34;6118827;19;2113;-65
2022/11/21 00:38:46;;;;;;;;;;;;;;;23.36;48.81;93752.03;6116563;19;2080;-64
2022/11/21 00:40:52;;;;;;;;;;;;;;;23.38;48.67;93752.56;6092223;19;2244;-65
2022/11/21 00:42:55;;;;;;;;;;;;;;;23.40;48.92;93758.47;6118313;19;2029;-65
2022/11/21 00:44:58;;;;;;;;;;;;;;;23.42;48.49;93760.91;6115539;19;1057;-65
2022/11/21 00:47:02;;;;;;;;;;;;;;;23.41;48.63;93765.44;6118809;19;1891;-65
2022/11/21 00:49:05;;;;;;;;;;;;;;;23.41;48.42;93765.44;6119251;19;1710;-65
2022/11/21 00:51:08;;;;;;;;;;;;;;;23.39;48.83;93767.59;6106162;19;2009;-65
2022/11/21 00:53:11;;;;;;;;;;;;;;;23.38;48.99;93781.25;6103983;19;1955;-65
2022/11/21 00:55:15;;;;;;;;;;;;;;;23.41;48.43;93764.63;6118479;19;1907;-65
2022/11/21 00:57:21;;;;;;;;;;;;;;;23.40;48.29;93771.88;6119055;19;2154;-64
2022/11/21 00:59:24;;;;;;;;;;;;;;;23.41;48.52;93770.00;6118260;19;2077;-64
2022/11/21 01:01:27;;;;;;;;;;;;;;;23.39;48.77;93751.50;6117478;19;1927;-65
2022/11/21 01:03:30;;;;;;;;;;;;;;;23.40;48.74;93742.41;6088794;19;2057;-65
2022/11/21 01:05:34;;;;;;;;;;;;;;;23.40;49.01;93726.31;6117762;19;2042;-65
2022/11/21 01:07:37;;;;;;;;;;;;;;;23.39;48.88;93724.72;6116141;19;1993;-65
2022/11/21 01:09:41;;;;;;;;;;;;;;;23.41;48.49;93719.88;6118622;19;1882;-65
2022/11/21 01:11:44;;;;;;;;;;;;;;;23.41;48.34;93727.91;6117305;19;2111;-65
2022/11/21 01:13:50;;;;;;;;;;;;;;;23.43;48.27;93735.75;6114331;19;2071;-66
2022/11/21 01:15:54;;;;;;;;;;;;;;;23.43;48.29;93739.22;6097859;19;2291;-66
2022/11/21 01:17:57;;;;;;;;;;;;;;;23.42;48.24;93729.56;6116238;19;1867;-66
2022/11/21 01:20:00;;;;;;;;;;;;;;;23.42;48.59;93740.28;6117298;19;2098;-66
2022/11/21 01:22:04;;;;;;;;;;;;;;;23.43;48.61;93759.88;6118565;19;2131;-66
2022/11/21 01:24:07;;;;;;;;;;;;;;;23.42;48.53;93756.34;6115881;19;2108;-66
2022/11/21 01:26:12;;;;;;;;;;;;;;;23.40;48.65;93766.53;6093422;19;1917;-66
2022/11/21 01:28:15;;;;;;;;;;;;;;;23.42;48.11;93761.72;6117308;19;1849;-66
2022/11/21 01:30:21;;;;;;;;;;;;;;;23.42;48.49;93753.69;6116795;19;1906;-66
2022/11/21 01:32:24;;;;;;;;;;;;;;;23.41;48.35;93733.28;6116816;19;1886;-64
2022/11/21 01:34:28;;;;;;;;;;;;;;;23.40;48.34;93731.69;6115523;19;1674;-66
2022/11/21 01:36:32;;;;;;;;;;;;;;;23.40;48.29;93720.94;6118100;19;2118;-66
2022/11/21 01:38:35;;;;;;;;;;;;;;;23.38;48.87;93708.88;6090199;19;1927;-65
2022/11/21 01:40:39;;;;;;;;;;;;;;;23.35;49.04;93710.19;6115009;19;2019;-66
2022/11/21 01:42:51;;;;;;;;;;;;;;;23.36;48.50;93698.44;6117248;19;2009;-61
2022/11/21 01:44:55;;;;;;;;;;;;;;;23.36;48.67;93685.03;6117088;19;2179;-61
2022/11/21 01:47:01;;;;;;;;;;;;;;;23.38;48.72;93706.19;6117452;19;2142;-61
2022/11/21 01:49:06;;;;;;;;;;;;;;;23.37;48.43;93694.69;6104095;19;2105;-62
2022/11/21 01:51:11;;;;;;;;;;;;;;;23.28;48.93;93696.25;6108783;19;2021;-63
2022/11/21 01:53:14;;;;;;;;;;;;;;;23.37;48.89;93694.69;6115608;19;2095;-63
2022/11/21 01:55:17;;;;;;;;;;;;;;;23.44;49.18;93697.94;6115167;19;1735;-62
2022/11/21 01:57:23;;;;;;;;;;;;;;;23.48;48.96;93717.00;6117961;19;2042;-63
2022/11/21 01:59:29;;;;;;;;;;;;;;;23.40;49.11;93718.28;6114947;19;2124;-61
2022/11/21 02:01:34;;;;;;;;;;;;;;;23.41;49.20;93721.75;6088315;19;2232;-61
2022/11/21 02:03:40;;;;;;;;;;;;;;;23.44;48.85;93731.97;6115961;19;1687;-60
2022/11/21 02:05:43;;;;;;;;;;;;;;;23.40;49.22;93734.34;6116404;19;1853;-62
2022/11/21 02:07:48;;;;;;;;;;;;;;;23.40;48.80;93742.41;6118228;19;2147;-62
2022/11/21 02:09:53;;;;;;;;;;;;;;;23.40;48.94;93747.75;6116434;19;2098;-61
2022/11/21 02:11:57;;;;;;;;;;;;;;;23.40;48.98;93715.59;6102944;19;2100;-61
2022/11/21 02:14:01;;;;;;;;;;;;;;;23.40;48.89;93715.59;6101032;19;1865;-61
2022/11/21 02:16:04;;;;;;;;;;;;;;;23.39;48.89;93740.78;6115049;19;2402;-60
2022/11/21 02:18:10;;;;;;;;;;;;;;;23.36;49.09;93752.03;6115523;19;2081;-62
2022/11/21 02:20:17;;;;;;;;;;;;;;;23.38;48.74;93765.97;6119440;19;1860;-61
2022/11/21 02:22:27;;;;;;;;;;;;;;;23.39;48.97;93751.50;6124288;19;1760;-60
2022/11/21 02:24:32;;;;;;;;;;;;;;;23.37;49.13;93737.56;6092241;19;2075;-61
2022/11/21 02:26:38;;;;;;;;;;;;;;;23.36;48.91;93735.97;6122365;19;2091;-61
2022/11/21 02:28:41;;;;;;;;;;;;;;;23.35;48.98;93726.28;6120300;19;1952;-61
2022/11/21 02:30:45;;;;;;;;;;;;;;;23.37;48.98;93737.56;6121495;19;2099;-61
2022/11/21 02:32:48;;;;;;;;;;;;;;;23.37;48.66;93732.19;6120410;19;2116;-61
2022/11/21 02:34:51;;;;;;;;;;;;;;;23.36;49.01;93741.31;6110233;19;1834;-62
2022/11/21 02:36:55;;;;;;;;;;;;;;;23.35;49.14;93739.69;6106588;19;2075;-61
2022/11/21 02:38:58;;;;;;;;;;;;;;;23.36;48.76;93722.56;6118812;19;1047;-61
2022/11/21 02:41:04;;;;;;;;;;;;;;;23.35;48.86;93718.25;6121001;19;1414;-62
2022/11/21 02:43:14;;;;;;;;;;;;;;;23.35;48.75;93704.84;6121118;19;1175;-61
2022/11/21 02:45:20;;;;;;;;;;;;;;;23.38;48.74;93712.34;6118301;19;2076;-61
2022/11/21 02:47:24;;;;;;;;;;;;;;;23.34;48.93;93705.91;6091962;19;1999;-61
2022/11/21 02:49:33;;;;;;;;;;;;;;;23.35;48.72;93702.16;6120393;19;1815;-60
2022/11/21 02:51:37;;;;;;;;;;;;;;;23.34;48.50;93695.19;6121711;19;2031;-60
2022/11/21 02:53:40;;;;;;;;;;;;;;;23.34;48.96;93686.34;6120442;19;2144;-60
2022/11/21 02:55:44;;;;;;;;;;;;;;;23.32;48.49;93680.44;6120429;19;1699;-62
2022/11/21 02:57:47;;;;;;;;;;;;;;;23.35;48.70;93667.31;6109300;19;2102;-60
2022/11/21 02:59:53;;;;;;;;;;;;;;;23.33;49.22;93672.13;6104706;19;1709;-60
2022/11/21 03:01:58;;;;;;;;;;;;;;;23.37;48.90;93662.50;6119757;19;2096;-61
2022/11/21 03:04:01;;;;;;;;;;;;;;;23.42;48.93;93665.22;6118364;19;1587;-60
2022/11/21 03:06:05;;;;;;;;;;;;;;;23.42;48.69;93661.72;6119514;19;2086;-60
2022/11/21 03:08:09;;;;;;;;;;;;;;;23.42;48.43;93664.41;6121104;19;1873;-60
2022/11/21 03:10:12;;;;;;;;;;;;;;;23.42;48.71;93680.50;6092456;19;1984;-64
2022/11/21 03:12:16;;;;;;;;;;;;;;;23.36;48.75;93687.72;6121604;19;1873;-63
2022/11/21 03:14:19;;;;;;;;;;;;;;;23.37;48.77;93673.22;6120295;19;1839;-63
2022/11/21 03:16:25;;;;;;;;;;;;;;;23.37;48.57;93677.78;6119368;19;1906;-62
2022/11/21 03:18:29;;;;;;;;;;;;;;;23.36;48.80;93663.59;6121501;19;1908;-60
2022/11/21 03:20:33;;;;;;;;;;;;;;;23.38;48.69;93669.47;6117592;19;1899;-63
2022/11/21 03:22:36;;;;;;;;;;;;;;;23.37;49.01;93677.78;6102326;19;2058;-62
2022/11/21 03:24:40;;;;;;;;;;;;;;;23.38;48.90;93674.84;6118592;19;1791;-61
2022/11/21 03:26:43;;;;;;;;;;;;;;;23.41;48.93;93674.31;6120397;19;1815;-62
2022/11/21 03:28:46;;;;;;;;;;;;;;;23.44;48.87;93663.09;6121097;19;1839;-61
2022/11/21 03:30:49;;;;;;;;;;;;;;;23.44;48.58;93663.09;6116880;19;1987;-61
2022/11/21 03:32:56;;;;;;;;;;;;;;;23.41;49.04;93674.31;6095061;19;2084;-60
2022/11/21 03:34:59;;;;;;;;;;;;;;;23.43;48.65;93674.88;6118078;19;1847;-63
2022/11/21 03:37:03;;;;;;;;;;;;;;;23.42;48.39;93667.91;6122451;19;1847;-60
2022/11/21 03:39:06;;;;;;;;;;;;;;;23.44;48.37;93665.78;6116836;19;1849;-60
2022/11/21 03:41:28;;;;;;;;;;;;;;;23.45;48.71;93670.09;6119637;19;1840;-59
2022/11/21 03:43:31;;;;;;;;;;;;;;;23.32;48.91;93667.84;6119833;19;2093;-62
2022/11/21 03:45:34;;;;;;;;;;;;;;;23.17;49.43;93665.09;6096065;19;1793;-62
2022/11/21 03:47:38;;;;;;;;;;;;;;;23.32;48.86;93665.16;6120328;19;2009;-59
2022/11/21 03:49:44;;;;;;;;;;;;;;;23.40;49.18;93661.97;6118433;19;1826;-59
2022/11/21 03:51:47;;;;;;;;;;;;;;;23.39;48.84;93665.75;6121751;19;1772;-62
2022/11/21 03:53:50;;;;;;;;;;;;;;;23.44;48.94;93665.78;6119814;19;1905;-63
2022/11/21 03:55:54;;;;;;;;;;;;;;;23.49;48.45;93658.84;6096394;19;1866;-63
2022/11/21 03:57:57;;;;;;;;;;;;;;;23.50;48.76;93655.88;6118970;19;2050;-62
2022/11/21 04:00:00;;;;;;;;;;;;;;;23.49;48.46;93648.09;6120303;19;2196;-62
2022/11/21 04:02:03;;;;;;;;;;;;;;;23.46;48.49;93644.88;6119157;19;1997;-62
2022/11/21 04:04:07;;;;;;;;;;;;;;;23.44;48.58;93646.22;6120586;19;2033;-62
2022/11/21 04:06:14;;;;;;;;;;;;;;;23.38;48.43;93631.16;6122079;19;1841;-60
2022/11/21 04:08:17;;;;;;;;;;;;;;;23.40;48.71;93631.69;6094606;19;2122;-61
2022/11/21 04:10:20;;;;;;;;;;;;;;;23.42;48.60;93616.97;6120911;19;2001;-60
2022/11/21 04:12:23;;;;;;;;;;;;;;;23.19;47.40;93615.56;6121563;19;1854;-60
2022/11/21 04:14:27;;;;;;;;;;;;;;;22.79;46.71;93630.34;6118658;19;1709;-63
2022/11/21 04:16:30;;;;;;;;;;;;;;;22.41;45.13;93631.41;6117600;19;1845;-61
2022/11/21 04:18:35;;;;;;;;;;;;;;;22.11;46.54;93626.63;6107906;19;2114;-62
2022/11/21 04:20:38;;;;;;;;;;;;;;;22.16;45.62;93620.50;6109705;19;1935;-62
2022/11/21 04:22:44;;;;;;;;;;;;;;;22.10;44.72;93622.31;6116848;19;2125;-60
2022/11/21 04:24:47;;;;;;;;;;;;;;;21.97;43.79;93612.88;6119143;19;1936;-63
2022/11/21 04:26:51;;;;;;;;;;;;;;;21.77;43.31;93617.97;6120562;19;2179;-62
2022/11/21 04:28:54;;;;;;;;;;;;;;;21.60;42.58;93624.25;6118645;19;2783;-62
2022/11/21 04:30:57;;;;;;;;;;;;;;;21.60;42.49;93634.94;6092099;19;1834;-60
2022/11/21 04:33:01;;;;;;;;;;;;;;;21.45;42.17;93630.25;6118417;19;1853;-61
2022/11/21 04:35:04;;;;;;;;;;;;;;;21.52;41.05;93640.72;6118501;19;1847;-62
2022/11/21 04:37:07;;;;;;;;;;;;;;;21.56;41.40;93639.16;6114688;19;1888;-62
2022/11/21 04:39:13;;;;;;;;;;;;;;;22.14;41.91;93650.19;6120979;19;1635;-61
2022/11/21 04:41:17;;;;;;;;;;;;;;;22.54;42.25;93647.03;6107213;19;1924;-62
2022/11/21 04:43:20;;;;;;;;;;;;;;;22.72;42.09;93647.69;6105501;19;2107;-62
2022/11/21 04:45:23;;;;;;;;;;;;;;;22.83;41.92;93645.91;6119610;19;2174;-61
2022/11/21 04:47:26;;;;;;;;;;;;;;;22.90;41.83;93649.94;6120807;19;1852;-61
2022/11/21 04:49:30;;;;;;;;;;;;;;;22.93;42.02;93649.41;6119650;19;2062;-60
2022/11/21 04:51:33;;;;;;;;;;;;;;;22.97;42.12;93658.56;6121008;19;1825;-64
2022/11/21 04:53:36;;;;;;;;;;;;;;;23.00;42.08;93647.34;6089036;19;2049;-61
2022/11/21 04:55:42;;;;;;;;;;;;;;;23.05;41.85;93661.81;6117851;19;1773;-61
2022/11/21 04:57:46;;;;;;;;;;;;;;;23.08;42.41;93663.97;6117443;19;1756;-64
2022/11/21 04:59:49;;;;;;;;;;;;;;;22.71;39.15;93675.56;6117479;19;1848;-62
2022/11/21 05:01:52;;;;;;;;;;;;;;;21.52;41.31;93688.03;6119382;19;1582;-60
2022/11/21 05:03:55;;;;;;;;;;;;;;;21.04;41.38;93701.00;6107804;19;2094;-61
2022/11/21 05:05:59;;;;;;;;;;;;;;;21.13;41.36;93715.56;6103531;19;2085;-61
2022/11/21 05:08:02;;;;;;;;;;;;;;;20.93;41.19;93724.09;6117977;19;1694;-61
2022/11/21 05:10:09;;;;;;;;;;;;;;;20.65;41.90;93719.66;6118562;19;2093;-62
2022/11/21 05:14:30;;;;;;;;;;;;;;;21.00;41.06;93686.56;6118205;19;1878;-62
2022/11/21 05:16:34;;;;;;;;;;;;;;;21.10;40.42;93704.56;6093509;19;1875;-62
2022/11/21 05:18:37;;;;;;;;;;;;;;;21.00;40.69;93705.25;6117037;19;1129;-61
2022/11/21 05:20:40;;;;;;;;;;;;;;;20.89;40.64;93703.47;6115504;19;2027;-62
2022/11/21 05:22:44;;;;;;;;;;;;;;;20.89;39.74;93711.50;6114611;19;1340;-62
2022/11/21 05:24:48;;;;;;;;;;;;;;;20.87;39.91;93721.59;6115509;19;986;-61
2022/11/21 05:26:51;;;;;;;;;;;;;;;20.68;40.11;93740.53;6102298;19;2555;-61
2022/11/21 05:28:57;;;;;;;;;;;;;;;20.00;39.94;93739.59;6101081;19;1706;-62
2022/11/21 05:31:00;;;;;;;;;;;;;;;20.41;40.21;93727.03;6115068;19;1053;-63
2022/11/21 05:33:05;;;;;;;;;;;;;;;20.40;40.32;93722.72;6116209;19;1829;-62
2022/11/21 05:35:09;;;;;;;;;;;;;;;20.65;40.02;93725.00;6113794;19;955;-62
2022/11/21 05:37:12;;;;;;;;;;;;;;;20.79;39.40;93712.94;6111250;19;1050;-62
2022/11/21 05:39:15;;;;;;;;;;;;;;;20.83;38.29;93704.44;6089168;19;1535;-60
2022/11/21 05:41:18;;;;;;;;;;;;;;;21.22;39.23;93705.28;6114231;19;1128;-62
2022/11/21 05:45:40;;;;;;;;;;;;;;;22.01;39.24;93739.66;6114556;19;1011;-62
2022/11/21 05:47:43;;;;;;;;;;;;;;;22.19;38.81;93751.88;6113735;19;1050;-60
2022/11/21 05:49:47;;;;;;;;;;;;;;;22.29;38.40;93754.66;6101576;19;1642;-61
2022/11/21 05:51:50;;;;;;;;;;;;;;;22.35;38.54;93759.00;6106741;19;1384;-60
2022/11/21 05:53:53;;;;;;;;;;;;;;;22.40;38.59;93763.59;6120656;19;2221;-63
2022/11/21 05:55:57;;;;;;;;;;;;;;;22.43;38.67;93759.63;6122778;19;1050;-61
2022/11/21 05:58:01;;;;;;;;;;;;;;;22.46;38.33;93759.91;6122297;19;1078;-60
2022/11/21 06:00:05;;;;;;;;;;;;;;;22.47;38.87;93758.84;6122293;19;971;-60
2022/11/21 06:04:27;;;;;;;;;;;;;;;22.51;39.02;93768.00;6124006;19;900;-60
2022/11/21 06:06:30;;;;;;;;;;;;;;;22.52;39.15;93769.59;6121227;19;1065;-61
2022/11/21 06:08:35;;;;;;;;;;;;;;;22.57;38.88;93771.53;6122390;19;1069;-60
2022/11/21 06:10:38;;;;;;;;;;;;;;;22.57;39.17;93788.38;6120281;19;1310;-60
2022/11/21 06:12:41;;;;;;;;;;;;;;;22.60;39.23;93796.97;6100706;19;1231;-62
2022/11/21 06:14:45;;;;;;;;;;;;;;;22.61;38.91;93806.63;6118996;19;1845;-62
2022/11/21 06:16:48;;;;;;;;;;;;;;;22.62;39.43;93808.22;6122401;19;1053;-60
2022/11/21 06:18:54;;;;;;;;;;;;;;;22.64;39.12;93806.09;6122165;19;979;-60
2022/11/21 06:21:02;;;;;;;;;;;;;;;22.63;39.26;93793.78;6120310;19;1037;-63
2022/11/21 06:23:05;;;;;;;;;;;;;;;22.65;39.50;93819.25;6120142;19;1074;-61
2022/11/21 06:25:09;;;;;;;;;;;;;;;22.67;39.35;93843.06;6097435;19;2063;-61
2022/11/21 06:27:12;;;;;;;;;;;;;;;22.69;39.42;93854.34;6119950;19;1042;-60
2022/11/21 06:29:15;;;;;;;;;;;;;;;22.69;39.36;93870.41;6120773;19;946;-60
2022/11/21 06:31:20;;;;;;;;;;;;;;;22.71;39.89;93830.84;6121872;19;1140;-62
2022/11/21 06:33:23;;;;;;;;;;;;;;;22.75;40.33;93821.22;6119582;19;1833;-62
2022/11/21 06:35:29;;;;;;;;;;;;;;;22.77;40.41;93819.13;6096198;19;1067;-62
2022/11/21 06:37:32;;;;;;;;;;;;;;;22.80;40.56;93872.16;6118915;19;1506;-60
2022/11/21 06:39:36;;;;;;;;;;;;;;;22.81;40.78;93897.88;6119255;19;1079;-60
2022/11/21 06:41:39;;;;;;;;;;;;;;;22.82;41.12;93896.00;6119387;19;1140;-60
2022/11/21 06:43:43;;;;;;;;;;;;;;;22.81;41.38;93878.31;6121117;19;1132;-61
2022/11/21 06:45:46;;;;;;;;;;;;;;;22.81;41.88;93892.53;6121853;19;1057;-61
2022/11/21 06:47:49;;;;;;;;;;;;;;;22.78;42.07;93885.78;6098081;19;1601;-60
2022/11/21 06:49:53;;;;;;;;;;;;;;;22.80;42.09;93898.94;6121768;19;1307;-61
2022/11/21 06:51:59;;;;;;;;;;;;;;;22.81;41.62;93921.97;6121267;19;1098;-60
2022/11/21 06:54:02;;;;;;;;;;;;;;;22.82;41.84;93915.53;6120911;19;1845;-61
2022/11/21 06:56:06;;;;;;;;;;;;;;;22.83;41.80;93914.50;6119571;19;990;-61
2022/11/21 06:58:09;;;;;;;;;;;;;;;22.84;41.48;93939.41;6099674;19;2110;-65
2022/11/21 07:00:13;;;;;;;;;;;;;;;22.83;41.99;93962.72;6119104;19;1311;-61
2022/11/21 07:02:16;;;;;;;;;;;;;;;22.85;41.85;93960.59;6120059;19;1313;-60
2022/11/21 07:04:20;;;;;;;;;;;;;;;22.82;41.84;93955.72;6117447;19;1030;-61
2022/11/21 07:06:23;;;;;;;;;;;;;;;22.87;42.32;93989.78;6118622;19;1115;-63
2022/11/21 07:08:29;;;;;;;;;;;;;;;22.91;41.98;93985.56;6120972;19;964;-61
2022/11/21 07:10:33;;;;;;;;;;;;;;;22.91;41.58;93988.25;6100989;19;1389;-63
2022/11/21 07:14:52;;;;;;;;;;;;;;;22.92;42.33;93985.31;6120035;19;1850;-62
2022/11/21 07:16:55;;;;;;;;;;;;;;;22.90;41.97;93979.38;6121412;19;1022;-61
2022/11/21 07:18:59;;;;;;;;;;;;;;;22.90;42.11;94016.88;6120859;19;995;-62
2022/11/21 07:21:02;;;;;;;;;;;;;;;22.91;42.42;93986.38;6095516;19;1729;-60
2022/11/21 07:23:06;;;;;;;;;;;;;;;22.93;42.39;93989.59;6120529;19;1737;-61
2022/11/21 07:25:12;;;;;;;;;;;;;;;22.92;42.28;94004.06;6121189;19;970;-62
2022/11/21 07:27:15;;;;;;;;;;;;;;;22.92;42.29;94014.78;6120571;19;998;-59
2022/11/21 07:29:19;;;;;;;;;;;;;;;22.95;41.65;94032.22;6119461;19;1749;-60
2022/11/21 07:31:22;;;;;;;;;;;;;;;22.93;41.80;94024.41;6116743;19;1062;-64
2022/11/21 07:33:26;;;;;;;;;;;;;;;22.93;41.91;94027.09;6099047;19;1312;-60
2022/11/21 07:35:30;;;;;;;;;;;;;;;22.92;42.08;94008.59;6117900;19;1849;-60
2022/11/21 07:37:33;;;;;;;;;;;;;;;22.89;42.06;94031.34;6120512;19;1324;-65
2022/11/21 07:39:36;;;;;;;;;;;;;;;22.54;41.92;94037.84;6119710;19;1074;-62
2022/11/21 07:41:42;;;;;;;;;;;;;;;22.72;41.86;94041.31;6118364;19;971;-61
2022/11/21 07:43:45;;;;;;;;;;;;;;;22.79;41.82;94047.28;6095088;19;1725;-59
2022/11/21 07:45:49;;;;;;;;;;;;;;;22.84;41.63;94044.66;6120403;19;995;-62
2022/11/21 07:47:58;;;;;;;;;;;;;;;22.85;41.40;94050.81;6118468;19;1054;-60
2022/11/21 07:50:02;;;;;;;;;;;;;;;22.87;41.52;94051.41;6119651;19;1042;-60
2022/11/21 07:52:05;;;;;;;;;;;;;;;22.89;41.10;94052.78;6118944;19;983;-60
2022/11/21 07:54:09;;;;;;;;;;;;;;;22.88;41.26;94048.47;6114197;19;1858;-61
2022/11/21 07:56:12;;;;;;;;;;;;;;;22.84;40.53;94049.22;6103212;19;1563;-61
2022/11/21 07:58:18;;;;;;;;;;;;;;;22.90;41.04;94064.28;6119131;19;1237;-60
2022/11/21 08:00:21;;;;;;;;;;;;;;;22.91;41.27;94072.09;6117846;19;966;-61
2022/11/21 08:02:26;;;;;;;;;;;;;;;22.91;41.22;94076.66;6118945;19;1621;-63
2022/11/21 08:04:29;;;;;;;;;;;;;;;22.92;40.95;94087.09;6120095;19;1046;-61
2022/11/21 08:06:33;;;;;;;;;;;;;;;22.90;41.01;94089.19;6091718;19;1601;-64
2022/11/21 08:08:36;;;;;;;;;;;;;;;22.88;41.08;94098.53;6119674;19;2193;-62
2022/11/21 08:10:40;;;;;;;;;;;;;;;22.90;41.35;94085.72;6119199;19;1049;-60
2022/11/21 08:12:43;;;;;;;;;;;;;;;22.93;41.42;94101.28;6116901;19;1053;-60
2022/11/21 08:14:49;;;;;;;;;;;;;;;22.95;40.99;94102.66;6118258;19;1841;-62
2022/11/21 08:16:53;;;;;;;;;;;;;;;22.97;41.14;94113.94;6110590;19;1045;-62
2022/11/21 08:18:56;;;;;;;;;;;;;;;22.97;40.88;94100.56;6103586;19;1743;-60
2022/11/21 08:21:02;;;;;;;;;;;;;;;22.97;41.21;94107.78;6116677;19;1037;-61
2022/11/21 08:23:05;;;;;;;;;;;;;;;22.99;41.21;94117.19;6119112;19;1036;-63
2022/11/21 08:25:09;;;;;;;;;;;;;;;23.00;41.24;94121.50;6116897;19;970;-61
2022/11/21 08:27:13;;;;;;;;;;;;;;;23.01;41.04;94114.25;6116513;19;1300;-63
2022/11/21 08:29:16;;;;;;;;;;;;;;;23.03;41.29;94125.53;6091667;19;1587;-62
2022/11/21 08:31:22;;;;;;;;;;;;;;;23.00;41.06;94134.88;6116956;19;1046;-62
2022/11/21 08:33:26;;;;;;;;;;;;;;;22.98;41.32;94133.50;6118999;19;1712;-60
2022/11/21 08:35:30;;;;;;;;;;;;;;;22.96;41.56;94125.75;6116724;19;1834;-61
2022/11/21 08:37:33;;;;;;;;;;;;;;;22.97;41.81;94130.03;6117654;19;1524;-65
2022/11/21 08:39:36;;;;;;;;;;;;;;;22.97;41.52;94151.47;6111099;19;1108;-63
2022/11/21 08:43:55;;;;;;;;;;;;;;;23.01;41.57;94144.53;6118891;19;862;-62
2022/11/21 08:45:58;;;;;;;;;;;;;;;23.01;41.86;94141.03;6117019;19;1866;-62
2022/11/21 08:48:04;;;;;;;;;;;;;;;23.05;41.81;94141.34;6118670;19;1101;-61
2022/11/21 08:50:08;;;;;;;;;;;;;;;23.06;41.60;94132.28;6116266;19;1090;-62
2022/11/21 08:52:11;;;;;;;;;;;;;;;23.05;41.45;94141.34;6097016;19;1957;-61
2022/11/21 08:54:15;;;;;;;;;;;;;;;23.05;41.59;94141.34;6118130;19;1846;-61
2022/11/21 08:56:18;;;;;;;;;;;;;;;23.05;41.83;94141.34;6118395;19;1018;-62
2022/11/21 08:58:22;;;;;;;;;;;;;;;23.04;41.66;94123.66;6116046;19;1164;-61
2022/11/21 09:00:25;;;;;;;;;;;;;;;23.05;41.84;94133.31;6116074;19;1337;-61
2022/11/21 09:02:28;;;;;;;;;;;;;;;23.05;41.58;94146.72;6106683;19;1350;-60
2022/11/21 09:04:34;;;;;;;;;;;;;;;23.05;41.67;94146.72;6104472;19;1961;-62
2022/11/21 09:06:38;;;;;;;;;;;;;;;23.05;41.13;94162.78;6116537;19;1492;-61
2022/11/21 09:08:41;;;;;;;;;;;;;;;23.05;41.46;94158.25;6118174;19;1037;-60
2022/11/21 09:10:44;;;;;;;;;;;;;;;23.05;41.46;94157.44;6117413;19;1370;-60
2022/11/21 09:12:48;;;;;;;;;;;;;;;23.04;41.63;94158.50;6115198;19;1029;-62
2022/11/21 09:19:22;;;;;;;;;;;;;;;22.94;41.43;94168.03;6117888;19;932;-59
2022/11/21 09:21:28;;;;;;;;;;;;;;;22.95;41.65;94166.97;6117734;19;1553;-60
2022/11/21 09:23:34;;;;;;;;;;;;;;;22.90;42.00;94164.19;6116297;19;1049;-59
2022/11/21 09:25:37;;;;;;;;;;;;;;;22.98;41.86;94177.19;6120920;19;1084;-59
2022/11/21 09:27:41;;;;;;;;;;;;;;;23.01;41.58;94173.19;6118725;19;1148;-59
2022/11/21 09:29:46;;;;;;;;;;;;;;;23.01;41.75;94175.88;6122277;19;1013;-60
2022/11/21 09:31:52;;;;;;;;;;;;;;;22.98;41.57;94163.78;6121744;19;1124;-59
2022/11/21 09:33:56;;;;;;;;;;;;;;;22.98;41.74;94171.81;6121748;19;1138;-60
2022/11/21 09:36:00;;;;;;;;;;;;;;;22.99;41.39;94176.13;6120396;19;1842;-60
2022/11/21 09:38:07;;;;;;;;;;;;;;;22.98;41.18;94163.78;6118254;19;1193;-60
2022/11/21 09:40:12;;;;;;;;;;;;;;;22.99;41.17;94173.47;6120048;19;1049;-60
2022/11/21 09:42:32;;;;;;;;;;;;;;;23.00;41.10;94180.44;6121082;19;1144;-59
2022/11/21 09:44:44;;;;;;;;;;;;;;;22.99;41.61;94173.47;6119647;19;1103;-60
2022/11/21 09:46:48;;;;;;;;;;;;;;;22.97;41.20;94186.28;6116216;19;1049;-62
2022/11/21 09:48:57;;;;;;;;;;;;;;;22.98;41.56;94174.50;6097394;19;1923;-60
2022/11/21 09:51:03;;;;;;;;;;;;;;;22.97;41.42;94180.13;6115601;19;1041;-60
2022/11/21 09:53:13;;;;;;;;;;;;;;;22.99;41.63;94177.97;6117746;19;1023;-62
2022/11/21 09:55:23;;;;;;;;;;;;;;;22.98;41.39;94177.19;6115665;19;1841;-60
2022/11/21 09:57:27;;;;;;;;;;;;;;;22.99;41.43;94175.31;6117029;19;991;-60
2022/11/21 09:59:35;;;;;;;;;;;;;;;22.97;41.50;94188.97;6117594;19;1033;-60
2022/11/21 10:01:38;;;;;;;;;;;;;;;23.00;41.78;94201.88;6114026;19;1261;-60
2022/11/21 10:03:43;;;;;;;;;;;;;;;22.99;41.41;94199.41;6117941;19;1018;-59
2022/11/21 10:05:48;;;;;;;;;;;;;;;23.01;41.37;94208.03;6117937;19;1119;-61
2022/11/21 10:07:55;;;;;;;;;;;;;;;23.00;41.40;94207.22;6118336;19;1033;-61
2022/11/21 10:10:18;;;;;;;;;;;;;;;23.00;41.90;94209.91;6118032;19;1144;-60
2022/11/21 10:12:38;;;;;;;;;;;;;;;22.99;41.96;94202.94;6105811;19;1526;-60
2022/11/21 10:14:49;;;;;;;;;;;;;;;22.99;41.99;94207.44;6116515;19;1853;-62
2022/11/21 10:16:57;;;;;;;;;;;;;;;23.02;41.97;94212.31;6117269;19;1128;-60
2022/11/21 10:19:09;;;;;;;;;;;;;;;23.00;42.07;94204.53;6114730;19;1049;-60
2022/11/21 10:21:20;;;;;;;;;;;;;;;23.02;41.54;94202.44;6117302;19;1054;-62
2022/11/21 10:23:31;;;;;;;;;;;;;;;23.02;41.59;94206.97;6101619;19;2013;-60
2022/11/21 10:25:38;;;;;;;;;;;;;;;23.04;42.10;94210.22;6114832;19;959;-61
2022/11/21 10:27:48;;;;;;;;;;;;;;;23.06;42.10;94212.66;6117696;19;1037;-60
2022/11/21 10:29:53;;;;;;;;;;;;;;;23.09;42.07;94217.53;6120496;19;1022;-59
2022/11/21 10:31:59;;;;;;;;;;;;;;;23.10;41.91;94219.94;6116612;19;2370;-62
2022/11/21 10:34:03;;;;;;;;;;;;;;;22.82;41.91;94214.69;6092863;19;1291;-62
2022/11/21 10:36:09;;;;;;;;;;;;;;;22.95;41.77;94211.69;6113896;19;1853;-64
2022/11/21 10:38:19;;;;;;;;;;;;;;;23.04;41.60;94204.03;6116060;19;1018;-64
2022/11/21 10:40:32;;;;;;;;;;;;;;;23.08;41.39;94211.34;6121250;19;970;-64
2022/11/21 10:42:38;;;;;;;;;;;;;;;23.10;41.71;94205.72;6121954;19;1081;-61
2022/11/21 10:47:00;;;;;;;;;;;;;;;23.05;41.93;94219.06;6113768;19;1298;-61
2022/11/21 10:49:06;;;;;;;;;;;;;;;23.05;41.93;94225.25;6119340;19;980;-61
2022/11/21 10:51:21;;;;;;;;;;;;;;;23.04;41.78;94218.25;6120057;19;1029;-61
2022/11/21 10:55:57;;;;;;;;;;;;;;;23.05;41.67;94211.00;6119300;19;1854;-60
2022/11/21 10:58:01;;;;;;;;;;;;;;;23.02;42.05;94201.59;6112263;19;2282;-61
2022/11/21 11:00:18;;;;;;;;;;;;;;;23.04;42.07;94199.50;6123484;19;963;-60
2022/11/21 11:02:25;;;;;;;;;;;;;;;23.04;41.81;94202.16;6119900;19;1320;-60
2022/11/21 11:04:29;;;;;;;;;;;;;;;23.06;41.83;94209.97;6120587;19;1067;-60
2022/11/21 11:06:32;;;;;;;;;;;;;;;23.09;41.93;94206.81;6119846;19;1058;-61
2022/11/21 11:08:50;;;;;;;;;;;;;;;23.06;42.24;94208.09;6100710;19;2037;-60
2022/11/21 11:11:04;;;;;;;;;;;;;;;23.06;41.80;94215.34;6118311;19;1133;-63
2022/11/21 11:15:33;;;;;;;;;;;;;;;23.07;41.89;94214.28;6120905;19;1842;-58
2022/11/21 11:17:36;;;;;;;;;;;;;;;23.04;41.93;94214.75;6120047;19;1033;-60
2022/11/21 11:19:40;;;;;;;;;;;;;;;23.05;42.20;94217.22;6097266;19;1723;-59
2022/11/21 11:21:44;;;;;;;;;;;;;;;23.06;42.11;94215.34;6118757;19;1050;-61